createdAt,value
2023-03-14T00:02:01.799Z,5.93
2023-03-14T00:04:31.071Z,4.20
2023-03-14T00:06:57.761Z,4.27
2023-03-14T00:09:24.471Z,7.17
2023-03-14T00:11:51.278Z,3.87
2023-03-14T00:14:17.976Z,4.57
2023-03-14T00:16:47.243Z,6.97
2023-03-14T00:19:13.901Z,5.07
2023-03-14T00:21:40.623Z,5.17
2023-03-14T00:24:08.178Z,5.37
2023-03-14T00:26:34.862Z,4.17
2023-03-14T00:29:03.988Z,4.00
2023-03-14T00:31:31.917Z,5.00
2023-03-14T00:33:58.586Z,5.97
2023-03-14T00:36:25.355Z,6.20
2023-03-14T00:38:52.905Z,6.67
2023-03-14T00:41:23.414Z,4.90
2023-03-14T00:43:50.606Z,4.17
2023-03-14T00:46:17.613Z,5.57
2023-03-14T00:48:46.695Z,7.80
2023-03-14T00:51:15.931Z,5.57
2023-03-14T00:53:44.567Z,3.77
2023-03-14T00:56:12.560Z,5.83
2023-03-14T00:58:39.413Z,8.77
2023-03-14T01:01:10.764Z,9.57
2023-03-14T01:03:37.656Z,10.13
2023-03-14T01:06:11.704Z,7.37
2023-03-14T01:08:38.743Z,6.50
2023-03-14T01:11:10.578Z,9.00
2023-03-14T01:13:37.817Z,7.90
2023-03-14T01:16:07.512Z,5.43
2023-03-14T01:18:38.660Z,4.50
2023-03-14T01:21:12.743Z,2.87
2023-03-14T01:23:39.499Z,5.60
2023-03-14T01:26:10.385Z,4.53
2023-03-14T01:28:37.806Z,4.47
2023-03-14T01:31:06.429Z,4.03
2023-03-14T01:33:33.347Z,2.43
2023-03-14T01:36:00.187Z,4.53
2023-03-14T01:38:27.241Z,3.67
2023-03-14T01:40:54.168Z,2.47
2023-03-14T01:44:37.321Z,2.80
2023-03-14T01:47:04.447Z,3.80
2023-03-14T01:49:34.697Z,4.30
2023-03-14T01:52:21.603Z,2.60
2023-03-14T01:54:54.288Z,3.40
2023-03-14T01:57:29.070Z,5.17
2023-03-14T02:00:17.860Z,4.77
2023-03-14T02:02:51.669Z,4.20
2023-03-14T02:05:23.675Z,3.93
2023-03-14T02:07:57.736Z,6.77
2023-03-14T02:10:30.443Z,5.90
2023-03-14T02:13:02.425Z,4.37
2023-03-14T02:15:52.439Z,5.03
2023-03-14T02:18:51.416Z,6.30
2023-03-14T02:22:14.582Z,6.43
2023-03-14T02:25:13.272Z,5.50
2023-03-14T02:27:43.768Z,4.87
2023-03-14T02:30:26.133Z,6.53
2023-03-14T02:32:56.377Z,5.23
2023-03-14T02:35:25.583Z,4.83
2023-03-14T02:38:06.554Z,6.10
2023-03-14T02:40:37.704Z,5.10
2023-03-14T02:43:04.448Z,6.83
2023-03-14T02:45:41.369Z,4.90
2023-03-14T02:48:18.206Z,5.90
2023-03-14T02:50:49.698Z,5.67
2023-03-14T02:53:23.162Z,5.13
2023-03-14T02:55:53.381Z,4.90
2023-03-14T02:58:22.969Z,6.63
2023-03-14T03:00:54.908Z,5.40
2023-03-14T03:03:23.474Z,5.10
2023-03-14T03:05:52.252Z,4.97
2023-03-14T03:08:27.467Z,6.47
2023-03-14T03:10:55.856Z,6.50
2023-03-14T03:13:22.505Z,6.60
2023-03-14T03:15:53.560Z,5.77
2023-03-14T03:18:20.352Z,5.73
2023-03-14T03:20:47.079Z,5.57
2023-03-14T03:23:15.376Z,4.67
2023-03-14T03:25:42.150Z,5.90
2023-03-14T03:28:09.080Z,7.70
2023-03-14T03:30:42.578Z,7.43
2023-03-14T03:33:09.590Z,6.77
2023-03-14T03:35:42.358Z,5.50
2023-03-14T03:38:12.810Z,5.73
2023-03-14T03:40:40.030Z,6.67
2023-03-14T03:43:08.112Z,7.50
2023-03-14T03:45:37.709Z,6.87
2023-03-14T03:48:05.825Z,7.20
2023-03-14T03:50:32.764Z,8.53
2023-03-14T03:52:59.670Z,5.70
2023-03-14T03:55:27.382Z,8.07
2023-03-14T03:57:56.842Z,7.47
2023-03-14T04:00:24.943Z,6.83
2023-03-14T04:02:51.868Z,5.60
2023-03-14T04:05:21.471Z,5.47
2023-03-14T04:07:54.889Z,6.50
2023-03-14T04:10:25.372Z,5.20
2023-03-14T04:13:24.851Z,7.67
2023-03-14T04:15:55.536Z,7.03
2023-03-14T04:18:27.728Z,6.80
2023-03-14T04:20:55.628Z,6.70
2023-03-14T04:23:26.618Z,5.37
2023-03-14T04:25:54.158Z,6.23
2023-03-14T04:28:22.718Z,5.67
2023-03-14T04:30:53.951Z,5.90
2023-03-14T04:33:23.479Z,5.60
2023-03-14T04:48:22.829Z,5.97
2023-03-14T04:50:52.400Z,7.50
2023-03-14T04:53:19.585Z,6.27
2023-03-14T04:55:50.626Z,6.43
2023-03-14T04:58:18.018Z,7.23
2023-03-14T05:00:45.801Z,9.13
2023-03-14T05:03:32.781Z,5.67
2023-03-14T05:06:00.006Z,6.97
2023-03-14T05:09:06.125Z,11.10
2023-03-14T05:11:52.801Z,7.53
2023-03-14T05:14:38.194Z,7.30
2023-03-14T05:17:21.039Z,7.33
2023-03-14T05:20:25.854Z,9.47
2023-03-14T05:23:12.981Z,9.67
2023-03-14T05:26:06.234Z,8.17
2023-03-14T05:28:49.498Z,6.13
2023-03-14T05:31:48.486Z,7.27
2023-03-14T05:34:50.723Z,5.47
2023-03-14T05:37:35.609Z,6.00
2023-03-14T05:40:20.438Z,8.23
2023-03-14T05:43:05.808Z,8.47
2023-03-14T05:45:34.509Z,11.27
2023-03-14T05:48:13.688Z,6.50
2023-03-14T05:51:05.533Z,7.00
2023-03-14T05:53:42.894Z,7.33
2023-03-14T05:56:20.620Z,11.30
2023-03-14T05:59:10.022Z,11.13
2023-03-14T06:01:46.058Z,12.20
2023-03-14T06:04:19.736Z,11.70
2023-03-14T06:06:53.293Z,12.60
2023-03-14T06:09:24.446Z,10.00
2023-03-14T06:11:53.556Z,7.40
2023-03-14T06:14:20.350Z,7.50
2023-03-14T06:16:51.781Z,5.90
2023-03-14T06:19:20.095Z,6.27
2023-03-14T06:21:47.352Z,7.77
2023-03-14T06:24:14.032Z,9.83
2023-03-14T06:26:45.441Z,8.03
2023-03-14T06:29:12.190Z,7.77
2023-03-14T06:31:39.023Z,8.90
2023-03-14T06:34:07.979Z,10.20
2023-03-14T06:36:34.753Z,10.67
2023-03-14T06:39:01.439Z,12.27
2023-03-14T06:41:30.889Z,15.53
2023-03-14T06:43:59.005Z,9.43
2023-03-14T06:46:26.765Z,8.77
2023-03-14T06:48:54.556Z,9.80
2023-03-14T06:51:21.306Z,8.20
2023-03-14T06:53:49.082Z,12.60
2023-03-14T06:56:17.125Z,13.67
2023-03-14T06:58:43.786Z,11.33
2023-03-14T07:01:32.304Z,10.10
2023-03-14T07:04:06.103Z,8.70
2023-03-14T07:06:34.987Z,10.07
2023-03-14T07:09:03.037Z,8.77
2023-03-14T07:11:30.901Z,11.17
2023-03-14T07:13:57.762Z,11.70
2023-03-14T07:16:25.405Z,9.47
2023-03-14T07:18:53.129Z,10.60
2023-03-14T07:21:19.898Z,9.97
2023-03-14T07:23:46.775Z,14.93
2023-03-14T07:26:14.496Z,11.83
2023-03-14T07:28:46.324Z,11.10
2023-03-14T07:31:17.001Z,10.93
2023-03-14T07:33:43.945Z,7.93
2023-03-14T07:36:11.043Z,8.77
2023-03-14T07:38:39.278Z,8.10
2023-03-14T07:41:24.166Z,9.93
2023-03-14T07:44:09.458Z,11.67
2023-03-14T07:46:36.170Z,13.33
2023-03-14T07:49:02.840Z,9.37
2023-03-14T07:51:31.678Z,14.87
2023-03-14T07:53:58.327Z,10.10
2023-03-14T07:56:25.128Z,9.37
2023-03-14T07:58:51.731Z,7.93
2023-03-14T08:01:18.373Z,9.30
2023-03-14T08:03:45.029Z,7.47
2023-03-14T08:06:11.659Z,12.50
2023-03-14T08:08:38.324Z,7.40
2023-03-14T08:11:11.823Z,9.33
2023-03-14T08:13:38.955Z,7.67
2023-03-14T08:16:06.130Z,8.97
2023-03-14T08:18:33.198Z,8.60
2023-03-14T08:20:59.899Z,9.80
2023-03-14T08:23:29.320Z,10.97
2023-03-14T08:25:55.992Z,10.10
2023-03-14T08:28:22.709Z,9.03
2023-03-14T08:30:49.484Z,10.17
2023-03-14T08:33:16.167Z,9.90
2023-03-14T08:35:43.059Z,14.03
2023-03-14T08:38:09.991Z,11.77
2023-03-14T08:40:36.611Z,13.33
2023-03-14T08:43:03.319Z,11.33
2023-03-14T08:45:30.048Z,12.53
2023-03-14T08:47:56.651Z,12.37
2023-03-14T08:50:24.369Z,10.70
2023-03-14T08:52:51.167Z,10.23
2023-03-14T08:55:17.972Z,10.47
2023-03-14T08:57:44.649Z,8.53
2023-03-14T09:00:15.184Z,11.57
2023-03-14T09:02:44.112Z,10.80
2023-03-14T09:05:11.462Z,8.40
2023-03-14T09:07:39.058Z,7.60
2023-03-14T09:10:06.799Z,7.73
2023-03-14T09:12:35.949Z,7.87
2023-03-14T09:15:02.849Z,8.03
2023-03-14T09:17:29.518Z,9.40
2023-03-14T09:19:57.619Z,7.37
2023-03-14T09:22:25.567Z,9.80
2023-03-14T09:24:52.418Z,5.97
2023-03-14T09:27:19.179Z,9.97
2023-03-14T09:29:45.815Z,9.50
2023-03-14T09:32:12.521Z,42.47
2023-03-14T09:34:39.188Z,52.93
2023-03-14T09:37:05.901Z,47.07
2023-03-14T09:39:32.642Z,31.47
2023-03-14T09:42:03.990Z,26.83
2023-03-14T09:44:33.985Z,13.73
2023-03-14T09:47:08.468Z,7.73
2023-03-14T09:49:37.897Z,9.33
2023-03-14T09:52:26.244Z,6.53
2023-03-14T09:55:00.456Z,10.00
2023-03-14T09:57:28.127Z,9.17
2023-03-14T09:59:58.341Z,6.63
2023-03-14T10:02:27.472Z,7.03
2023-03-14T10:04:55.412Z,5.23
2023-03-14T10:07:30.698Z,6.23
2023-03-14T10:09:58.484Z,8.40
2023-03-14T10:12:36.365Z,3.60
2023-03-14T10:15:06.471Z,4.23
2023-03-14T10:17:40.469Z,7.03
2023-03-14T10:20:07.562Z,3.73
2023-03-14T10:22:34.424Z,4.20
2023-03-14T10:25:08.282Z,5.53
2023-03-14T10:27:36.877Z,3.10
2023-03-14T10:30:09.314Z,4.10
2023-03-14T10:32:38.660Z,4.43
2023-03-14T10:35:14.553Z,4.13
2023-03-14T10:38:00.932Z,4.07
2023-03-14T10:40:41.903Z,3.33
2023-03-14T10:43:15.095Z,4.67
2023-03-14T10:45:44.365Z,3.43
2023-03-14T10:48:24.556Z,4.97
2023-03-14T10:50:55.737Z,3.47
2023-03-14T10:53:27.560Z,3.77
2023-03-14T10:55:56.957Z,4.67
2023-03-14T10:58:23.521Z,3.57
2023-03-14T11:01:16.927Z,7.70
2023-03-14T11:03:55.736Z,4.83
2023-03-14T11:06:30.105Z,4.13
2023-03-14T11:09:13.793Z,4.57
2023-03-14T11:11:41.112Z,4.23
2023-03-14T11:14:32.872Z,4.27
2023-03-14T11:17:18.448Z,3.77
2023-03-14T11:20:09.714Z,3.33
2023-03-14T11:22:49.116Z,3.93
2023-03-14T11:25:34.035Z,0.83
2023-03-14T11:28:16.784Z,0.50
2023-03-14T11:30:51.840Z,0.47
2023-03-14T11:33:26.221Z,1.17
2023-03-14T11:36:11.799Z,1.77
2023-03-14T11:38:47.603Z,0.87
2023-03-14T11:41:21.367Z,1.43
2023-03-14T11:43:50.156Z,1.07
2023-03-14T11:46:21.924Z,0.73
2023-03-14T11:49:03.342Z,0.93
2023-03-14T11:51:40.636Z,0.40
2023-03-14T12:37:45.563Z,0.82
2023-03-14T12:40:23.249Z,0.30
2023-03-14T12:43:11.582Z,1.60
2023-03-14T12:46:05.518Z,0.33
2023-03-14T12:48:35.308Z,2.00
2023-03-14T12:51:13.365Z,0.53
2023-03-14T12:53:49.867Z,0.93
2023-03-14T12:56:23.051Z,0.30
2023-03-14T12:59:32.158Z,0.30
2023-03-14T13:02:22.264Z,0.60
2023-03-14T13:05:14.917Z,0.50
2023-03-14T13:08:17.970Z,0.20
2023-03-14T13:10:58.167Z,0.73
2023-03-14T13:13:33.099Z,0.70
2023-03-14T13:16:33.347Z,0.73
2023-03-14T13:19:13.812Z,0.50
2023-03-14T13:28:25.047Z,0.33
2023-03-14T13:31:09.470Z,0.40
2023-03-14T13:37:06.155Z,0.60
2023-03-14T13:39:58.427Z,1.70
2023-03-14T13:46:26.928Z,0.87
2023-03-14T13:49:03.960Z,0.40
2023-03-14T13:51:43.702Z,0.40
2023-03-14T13:54:27.970Z,0.93
2023-03-14T13:57:06.388Z,0.83
2023-03-14T14:03:57.727Z,3.10
2023-03-14T14:09:36.736Z,0.30
2023-03-14T14:15:56.697Z,1.07
2023-03-14T14:21:52.401Z,0.60
2023-03-14T14:24:26.731Z,1.07
2023-03-14T14:27:05.425Z,0.97
2023-03-14T14:29:43.652Z,0.60
2023-03-14T14:32:16.861Z,1.10
2023-03-14T14:34:58.287Z,1.87
2023-03-14T14:37:30.824Z,0.57
2023-03-14T14:40:13.011Z,1.20
2023-03-14T14:42:47.672Z,2.23
2023-03-14T14:45:23.565Z,2.20
2023-03-14T14:52:35.871Z,0.70
2023-03-14T14:55:16.013Z,1.63
2023-03-14T14:57:54.535Z,3.83
2023-03-14T15:00:30.699Z,2.13
2023-03-14T15:03:03.518Z,2.43
2023-03-14T15:05:33.471Z,3.20
2023-03-14T15:08:18.270Z,3.60
2023-03-14T15:10:50.367Z,5.07
2023-03-14T15:13:28.003Z,6.00
2023-03-14T15:16:01.187Z,5.20
2023-03-14T15:18:35.917Z,2.77
2023-03-14T15:21:14.480Z,3.47
2023-03-14T15:23:42.037Z,5.10
2023-03-14T15:26:20.260Z,4.40
2023-03-14T15:28:52.076Z,3.83
2023-03-14T15:31:32.908Z,3.60
2023-03-14T15:34:02.635Z,2.10
2023-03-14T15:36:33.964Z,1.67
2023-03-14T15:39:11.012Z,1.60
2023-03-14T15:41:38.164Z,2.03
2023-03-14T15:44:07.038Z,1.87
2023-03-14T15:46:35.805Z,3.43
2023-03-14T15:49:07.881Z,2.90
2023-03-14T15:51:36.406Z,2.03
2023-03-14T15:54:05.745Z,1.80
2023-03-14T15:56:39.989Z,2.27
2023-03-14T15:59:07.357Z,1.47
2023-03-14T16:01:34.175Z,0.90
2023-03-14T16:04:04.670Z,1.73
2023-03-14T16:06:36.513Z,1.53
2023-03-14T16:09:03.736Z,2.20
2023-03-14T16:11:38.371Z,0.80
2023-03-14T16:14:09.532Z,0.60
2023-03-14T16:16:38.291Z,1.60
2023-03-14T16:19:09.674Z,0.50
2023-03-14T16:21:39.151Z,1.40
2023-03-14T16:24:08.796Z,2.50
2023-03-14T16:26:37.506Z,2.50
2023-03-14T16:29:04.694Z,3.53
2023-03-14T16:31:31.916Z,3.07
2023-03-14T16:34:03.804Z,2.30
2023-03-14T16:36:35.738Z,1.60
2023-03-14T16:39:04.481Z,3.83
2023-03-14T16:41:31.867Z,1.73
2023-03-14T16:44:13.621Z,3.07
2023-03-14T16:46:42.248Z,2.77
2023-03-14T16:49:09.009Z,1.67
2023-03-14T16:51:42.080Z,1.50
2023-03-14T16:54:16.662Z,2.10
2023-03-14T16:56:45.395Z,2.53
2023-03-14T17:01:43.017Z,3.63
2023-03-14T17:04:14.974Z,3.00
2023-03-14T17:06:50.218Z,2.90
2023-03-14T17:09:24.024Z,2.50
2023-03-14T17:11:58.712Z,2.43
2023-03-14T17:14:29.297Z,2.77
2023-03-14T17:16:56.471Z,2.57
2023-03-14T17:19:24.039Z,2.47
2023-03-14T17:21:54.929Z,2.57
2023-03-14T17:24:24.747Z,2.60
2023-03-14T17:26:54.720Z,2.37
2023-03-14T17:29:23.766Z,2.50
2023-03-14T17:31:53.975Z,3.00
2023-03-14T17:34:25.060Z,2.60
2023-03-14T17:37:10.758Z,5.40
2023-03-14T17:39:39.556Z,3.33
2023-03-14T17:42:26.327Z,2.70
2023-03-14T17:44:55.523Z,5.40
2023-03-14T17:47:24.315Z,4.37
2023-03-14T17:49:51.058Z,7.23
2023-03-14T17:52:20.354Z,4.73
2023-03-14T17:54:47.404Z,4.67
2023-03-14T17:57:18.103Z,4.10
2023-03-14T17:59:50.406Z,3.93
2023-03-14T18:02:18.439Z,3.03
2023-03-14T18:04:52.359Z,3.47
2023-03-14T18:07:20.814Z,2.20
2023-03-14T18:09:51.364Z,2.43
2023-03-14T18:12:23.353Z,2.53
2023-03-14T18:14:52.436Z,1.77
2023-03-14T18:17:38.230Z,1.83
2023-03-14T18:20:10.107Z,2.00
2023-03-14T18:22:37.287Z,1.70
2023-03-14T18:25:05.437Z,2.13
2023-03-14T18:27:33.971Z,3.50
2023-03-14T18:30:01.024Z,3.33
2023-03-14T18:32:27.992Z,2.67
2023-03-14T18:34:56.091Z,2.67
2023-03-14T18:37:22.828Z,2.10
2023-03-14T18:39:53.186Z,2.00
2023-03-14T18:42:20.849Z,2.20
2023-03-14T18:44:50.112Z,2.57
2023-03-14T18:47:20.296Z,2.30
2023-03-14T18:49:49.256Z,4.07
2023-03-14T18:52:17.921Z,2.30
2023-03-14T18:54:47.063Z,4.60
2023-03-14T18:57:18.135Z,3.03
2023-03-14T18:59:48.469Z,3.57
2023-03-14T19:02:16.652Z,2.70
2023-03-14T19:04:44.140Z,1.30
2023-03-14T19:07:14.064Z,1.50
2023-03-14T19:09:51.080Z,1.53
2023-03-14T19:12:19.058Z,0.60
2023-03-14T19:14:51.472Z,0.40
2023-03-14T19:17:19.697Z,0.20
2023-03-14T19:19:48.898Z,0.00
2023-03-14T19:22:17.039Z,0.20
2023-03-14T19:24:44.278Z,0.40
2023-03-14T19:27:12.230Z,0.20
2023-03-14T19:29:42.398Z,0.30
2023-03-14T19:32:13.639Z,0.20
2023-03-14T19:34:44.151Z,0.20
2023-03-14T19:37:22.297Z,0.10
2023-03-14T19:39:54.253Z,1.57
2023-03-14T19:42:22.186Z,0.40
2023-03-14T19:44:56.990Z,1.27
2023-03-14T19:47:30.191Z,0.40
2023-03-14T19:50:03.838Z,0.20
2023-03-14T19:56:37.236Z,1.40
2023-03-14T19:59:20.580Z,0.30
2023-03-14T20:05:11.754Z,0.97
2023-03-14T20:08:04.796Z,0.50
2023-03-14T20:11:02.618Z,0.40
2023-03-14T20:13:34.674Z,0.40
2023-03-14T20:16:12.676Z,0.40
2023-03-14T20:18:44.546Z,2.03
2023-03-14T20:21:21.881Z,0.40
2023-03-14T20:23:58.948Z,0.40
2023-03-14T20:26:37.027Z,0.50
2023-03-14T20:30:00.121Z,0.80
2023-03-14T20:36:03.691Z,1.27
2023-03-14T20:38:38.946Z,0.80
2023-03-14T20:41:19.977Z,0.50
2023-03-14T20:44:17.293Z,1.33
2023-03-14T20:46:55.688Z,1.27
2023-03-14T20:49:31.924Z,1.13
2023-03-14T20:52:02.618Z,2.10
2023-03-14T20:54:54.706Z,0.83
2023-03-14T20:57:29.290Z,0.67
2023-03-14T21:00:09.029Z,0.73
2023-03-14T21:07:43.099Z,2.00
2023-03-14T21:10:31.853Z,0.67
2023-03-14T21:20:43.384Z,1.17
2023-03-14T21:23:31.746Z,0.40
2023-03-14T21:29:42.336Z,0.80
2023-03-14T21:39:34.560Z,0.70
2023-03-14T21:42:21.098Z,1.20
2023-03-14T21:48:14.973Z,1.47
2023-03-14T22:07:00.450Z,1.23
2023-03-14T22:09:40.519Z,2.77
2023-03-14T22:12:19.693Z,2.10
2023-03-14T22:15:33.325Z,3.93
2023-03-14T22:22:20.500Z,1.97
2023-03-14T22:25:04.246Z,1.23
2023-03-14T22:57:32.839Z,1.13
2023-03-14T23:33:05.044Z,0.83
2023-03-14T23:55:17.900Z,1.57
